Airfield :
LOGIN :

Register | Disclaimer

   EN    FR    IT 

 










Legend :    VFR   Marginal VFR   IFR   Intensive IFR   Very Intensive IFR
Visi :
Ceiling :
>= 8 km
>= 3000ft
5 to 8 km
1000 to 3000 ft
1500m to 5 km
500 to 1000 ft
800 to 1500m
200 to 500 ft
< 800m
< 200 ft
Symbols :   Thunderstorms  Fog  Heavy snow  Heavy precipitations  Wind > 20 kt
SIGMETs :     Misc.  Thunderstorms  Icing  Turbulence  Mountain Waves  Volcanic Ashes






- Airport Elevation : 219 ft
- IATA code : DNR


LFRD - Dinard

CURRENT METAR :
  • 061900Z AUTO 06005KT CAVOK 05/01 Q1037 NOSIG

EXPIRED METARs :
  • 061830Z AUTO 05006KT CAVOK 05/01 Q1037 NOSIG
  • 061800Z AUTO 05006KT CAVOK 06/01 Q1037 NOSIG
  • 061730Z AUTO 05007KT CAVOK 06/00 Q1037 NOSIG
  • 061700Z AUTO 05007KT CAVOK 07/00 Q1037 NOSIG
  • 061630Z AUTO 05007KT CAVOK 08/M00 Q1037 NOSIG

TAF TAF LFRD
Valid from the 06 at 18:00 until the 07 at 18:00 UTC


061700Z 0618/0718 06010KT CAVOK
ATIS : +33 2 99 16 81 50



MET'MAP, your aeronautical weather chart ! - Copyright ORBIFLY December 2007 - Disclaimer

ORBIFLY MET'MAP TEAM :

Programming & Development : Alexandra Zaïnal
Original concept : Baudouin d'Aumeries
Technical & hardware support : Manuel Goepfert
Assistance : Marc-Olivier Méhu




SOURCES & CREDITS :

   NOAA